Flight Track Log - Related Links

Times and Time Zones

All times are in EDT time to prevent confusion due to time zone crossing. See the N658FE flight status page for this flight to view local times or setup timezone preferences in your user account.

Time Position Orientation Groundspeed Altitude Reporting Facility
EDT Latitude Longitude Course Direction KTS MPH feet Rate Location/Type
Thu 05:04:22 PM 37.7400 -122.2750 303° West 1,800  Level FlightAware ADS-B
Thu 05:04:52 PM 37.7630 -122.3090 311° West 3,200 289 Climbing FlightAware ADS-B
Thu 05:05:07 PM 37.7780 -122.3190 332° Northwest 4,300 272 Climbing FlightAware ADS-B
Thu 05:05:17 PM 37.7870 -122.3200 355° North 4,900 257 Climbing FlightAware ADS-B
Thu 05:05:47 PM 37.8270 -122.3070 14° North 7,500 250 Climbing FlightAware ADS-B
Thu 05:06:12 PM 37.8590 -122.2910 22° Northeast 9,500 216 Climbing FlightAware ADS-B
Thu 05:06:57 PM 37.9180 -122.2570 24° Northeast 11,500 189 Climbing FlightAware ADS-B
Thu 05:07:37 PM 37.9820 -122.2220 23° Northeast 13,600 163 Climbing FlightAware ADS-B
Thu 05:07:52 PM 38.0100 -122.2100 19° North 14,700 135 Climbing FlightAware ADS-B
Thu 05:08:27 PM 38.0680 -122.2070 North 16,800 120 Climbing FlightAware ADS-B
Thu 05:09:27 PM 38.1840 -122.2080 360° North 20,500 91 Climbing FlightAware ADS-B
Thu 05:10:12 PM 38.2780 -122.2110 359° North 23,200 39 Climbing FlightAware ADS-B
Thu 05:10:57 PM 38.3700 -122.2160 358° North 25,300  Climbing FlightAware ADS-B
Thu 05:11:42 PM 38.4600 -122.2200 358° North 27,200 -31 Climbing FlightAware ADS-B
Thu 05:12:22 PM 38.5490 -122.2240 358° North 28,800 -60 Climbing FlightAware ADS-B
Thu 05:13:02 PM 38.6340 -122.2280 358° North 31,000 -85 Climbing FlightAware ADS-B
Thu 05:13:47 PM 38.7210 -122.2330 357° North 33,000 -119 Climbing FlightAware ADS-B
Thu 05:14:22 PM 38.7950 -122.2360 358° North 34,300 -151 Climbing FlightAware ADS-B
Thu 05:15:12 PM 38.9010 -122.2410 358° North 35,700 -173 Climbing FlightAware ADS-B
Thu 05:15:52 PM 38.9830 -122.2440 358° North 36,900 -197 Climbing FlightAware ADS-B
Thu 05:16:37 PM 39.0660 -122.2480 358° North 37,900 -219 Climbing FlightAware ADS-B
Thu 05:17:17 PM 39.1520 -122.2520 358° North 38,000 -237 Climbing FlightAware ADS-B
Thu 05:17:57 PM 39.2330 -122.2560 358° North 38,000 -242 Level FlightAware ADS-B
Thu 05:18:42 PM 39.3220 -122.2610 358° North 38,000 -244 Level FlightAware ADS-B
Thu 05:19:22 PM 39.4040 -122.2640 358° North 38,000 -247 Level FlightAware ADS-B
Thu 05:20:02 PM 39.4880 -122.2680 358° North 38,000 -250 Level FlightAware ADS-B
Thu 05:20:47 PM 39.5750 -122.2720 358° North 38,000 -253 Level FlightAware ADS-B
Thu 05:21:27 PM 39.6550 -122.2760 358° North 38,000 -256 Level FlightAware ADS-B
Thu 05:22:12 PM 39.7480 -122.2800 358° North 38,000 -259 Level FlightAware ADS-B
Thu 05:22:52 PM 39.8250 -122.2840 358° North 38,000 -263 Level FlightAware ADS-B
Thu 05:23:32 PM 39.9050 -122.2880 358° North 38,000 -266 Level FlightAware ADS-B
Thu 05:24:17 PM 39.9920 -122.2920 358° North 38,000 -269 Level FlightAware ADS-B
Thu 05:24:57 PM 40.0710 -122.2960 358° North 38,000 -273 Level FlightAware ADS-B
Thu 05:25:42 PM 40.1620 -122.3000 358° North 38,000 -276 Level FlightAware ADS-B
Thu 05:26:22 PM 40.2400 -122.3040 358° North 38,000 -280 Level FlightAware ADS-B
Thu 05:27:17 PM 40.3450 -122.3090 358° North 38,000 -284 Level FlightAware ADS-B
Thu 05:28:02 PM 40.4320 -122.3130 358° North 38,000 -289 Level FlightAware ADS-B
Thu 05:28:42 PM 40.5100 -122.3170 358° North 38,000 -293 Level FlightAware ADS-B
Thu 05:29:22 PM 40.5890 -122.3200 358° North 38,000 -297 Level FlightAware ADS-B
Thu 05:30:07 PM 40.6720 -122.3250 357° North 38,000 -301 Level FlightAware ADS-B
Thu 05:30:47 PM 40.7500 -122.3280 358° North 38,000 -306 Level FlightAware ADS-B
Thu 05:31:32 PM 40.8350 -122.3330 357° North 38,000 -310 Level FlightAware ADS-B
Thu 05:32:12 PM 40.9140 -122.3360 358° North 38,000 -315 Level FlightAware ADS-B
Thu 05:32:57 PM 41.0000 -122.3410 357° North 38,000 -320 Level FlightAware ADS-B
Thu 05:33:37 PM 41.0750 -122.3440 358° North 38,000 -325 Level FlightAware ADS-B
Thu 05:34:17 PM 41.1540 -122.3480 358° North 38,000 -330 Level FlightAware ADS-B
Thu 05:35:02 PM 41.2400 -122.3520 358° North 38,000 -335 Level FlightAware ADS-B
Thu 05:35:42 PM 41.3180 -122.3560 358° North 38,000 -340 Level FlightAware ADS-B
Thu 05:36:22 PM 41.3950 -122.3600 358° North 38,000 -346 Level FlightAware ADS-B
Thu 05:37:07 PM 41.4800 -122.3640 358° North 38,000 -351 Level FlightAware ADS-B
Thu 05:37:47 PM 41.5560 -122.3680 358° North 38,000 -357 Level FlightAware ADS-B
Thu 05:38:32 PM 41.6420 -122.3720 358° North 38,000 -363 Level FlightAware ADS-B
Thu 05:39:12 PM 41.7240 -122.3760 358° North 38,000 -370 Level FlightAware ADS-B
Thu 05:40:07 PM 41.8270 -122.3820 358° North 38,000 -376 Level FlightAware ADS-B
Thu 05:42:12 PM 42.0570 -122.3930 358° North 38,000 -385 Level FlightAware ADS-B
Thu 05:42:52 PM 42.1470 -122.3980 358° North 38,000 -408 Level FlightAware ADS-B
Thu 05:43:37 PM 42.2320 -122.4020 358° North 38,000 -415 Level FlightAware ADS-B
Thu 05:44:12 PM 42.2980 -122.4050 358° North 38,000 -424 Level FlightAware ADS-B
Thu 05:45:02 PM 42.4020 -122.4110 358° North 38,000 -431 Level FlightAware ADS-B
Thu 05:45:47 PM 42.4870 -122.4150 358° North 38,000 -442 Level FlightAware ADS-B
Thu 05:46:22 PM 42.5530 -122.4180 358° North 38,000 -452 Level FlightAware ADS-B
Thu 05:47:07 PM 42.6450 -122.4230 358° North 38,000 -460 Level FlightAware ADS-B
Thu 05:50:12 PM 43.0110 -122.4420 358° North 38,000 -471 Level FlightAware ADS-B
Thu 05:54:17 PM 43.5010 -122.4680 358° North 38,000 -523 Level FlightAware ADS-B
Thu 05:54:52 PM 43.5690 -122.4710 358° North 38,000 -611 Level FlightAware ADS-B
Thu 05:55:27 PM 43.6380 -122.4750 358° North 38,000 -626 Level FlightAware ADS-B
Thu 05:56:12 PM 43.7220 -122.4800 358° North 38,000 -642 Level FlightAware ADS-B
Thu 05:56:57 PM 43.8190 -122.4850 358° North 38,000 -663 Level FlightAware ADS-B
Thu 05:57:37 PM 43.8990 -122.4890 358° North 38,000 -686 Level FlightAware ADS-B
Thu 05:58:22 PM 43.9850 -122.4940 358° North 38,000 -708 Level FlightAware ADS-B
Thu 05:59:02 PM 44.0640 -122.4980 358° North 38,000 -734 Level FlightAware ADS-B
Thu 05:59:42 PM 44.1440 -122.5020 358° North 38,000 -760 Level FlightAware ADS-B
Thu 06:00:27 PM 44.2350 -122.5070 358° North 38,000 -787 Level FlightAware ADS-B
Thu 06:01:07 PM 44.3150 -122.5120 357° North 38,000 -819 Level FlightAware ADS-B
Thu 06:01:47 PM 44.3950 -122.5160 358° North 38,000 -851 Level FlightAware ADS-B
Thu 06:02:32 PM 44.4820 -122.5210 358° North 38,000 -884 Level FlightAware ADS-B
Thu 06:03:12 PM 44.5600 -122.5250 358° North 38,000 -926 Level FlightAware ADS-B
Thu 06:03:52 PM 44.6360 -122.5290 358° North 38,000 -966 Level FlightAware ADS-B
Thu 06:04:37 PM 44.7290 -122.5340 358° North 38,000 -1,010 Level FlightAware ADS-B
Thu 06:05:17 PM 44.8080 -122.5390 357° North 38,000 -1,065 Level FlightAware ADS-B
Thu 06:06:02 PM 44.8950 -122.5430 358° North 38,000 -1,118 Level FlightAware ADS-B
Thu 06:06:42 PM 44.9740 -122.5480 357° North 38,000 -1,186 Level FlightAware ADS-B
Thu 06:07:27 PM 45.0560 -122.5520 358° North 38,000 -1,252 Level FlightAware ADS-B
Thu 06:08:07 PM 45.1390 -122.5570 358° North 38,000 -1,337 Level FlightAware ADS-B
Thu 06:08:47 PM 45.2250 -122.5620 358° North 38,000 -1,423 Level FlightAware ADS-B
Thu 06:09:32 PM 45.3110 -122.5670 358° North 38,000 -1,521 Level FlightAware ADS-B
Thu 06:10:12 PM 45.3930 -122.5710 358° North 38,000 -1,647 Level FlightAware ADS-B
Thu 06:10:57 PM 45.4730 -122.5760 357° North 38,000 -1,780 Level FlightAware ADS-B
Thu 06:11:27 PM 45.5330 -122.5790 358° North 38,000 -1,956 Level FlightAware ADS-B
Thu 06:12:17 PM 45.6330 -122.5850 358° North 37,100 -2,094 Descending FlightAware ADS-B
Thu 06:13:02 PM 45.7170 -122.5900 358° North 35,700 -2,230 Descending FlightAware ADS-B
Thu 06:13:42 PM 45.7960 -122.6020 354° North 33,400 -2,280 Descending FlightAware ADS-B
Thu 06:14:17 PM 45.8660 -122.6200 350° North 31,000 -2,118 Descending FlightAware ADS-B
Thu 06:17:27 PM 46.2220 -122.7030 351° North 24,000 -1,843 Descending FlightAware ADS-B
Thu 06:18:31 PM 46.3214 -122.7192 351° North 391 450 23,200 -1,344 Descending Seattle Center
Thu 06:19:32 PM 46.4261 -122.7156 North 379 436 21,200 -2,016 Descending Seattle Center
Thu 06:20:33 PM 46.5306 -122.7142 North 376 433 19,100 -1,967 Descending Seattle Center
Thu 06:21:34 PM 46.6539 -122.7097 North 368 423 17,200 -1,630 Descending Seattle Center
Thu 06:22:05 PM 46.6983 -122.7072 North 360 414 16,600 -1,475 Descending Seattle Center
Thu 06:22:35 PM 46.7497 -122.7042 North 345 397 15,700 -1,780 Descending Seattle Center
Thu 06:23:36 PM 46.8389 -122.6789 11° North 337 388 13,900 -1,869 Descending Seattle Center
Thu 06:24:37 PM 46.9022 -122.5889 44° Northeast 320 368 11,900 -1,918 Descending Seattle Center
Thu 06:25:38 PM 46.9589 -122.5086 44° Northeast 290 334 10,000 -1,672 Descending Seattle Center
Thu 06:26:39 PM 47.0167 -122.4386 40° Northeast 262 302 8,500 -1,426 Descending Seattle Center
Thu 06:27:40 PM 47.0806 -122.3842 30° Northeast 240 276 7,100 -1,230 Descending Seattle Center
Thu 06:28:41 PM 47.1389 -122.3425 26° Northeast 232 267 6,000 -992 Descending Seattle Center
Thu 06:29:41 PM 47.1994 -122.3189 15° North 229 264 5,100 -1,041 Descending Seattle Center
Thu 06:30:42 PM 47.2603 -122.3217 358° North 217 250 3,900 -1,082 Descending Seattle Center
Thu 06:31:43 PM 47.3108 -122.3200 North 182 209 2,900 -984 Descending Seattle Center
Thu 06:32:44 PM 47.3622 -122.3211 359° North 164 189 1,900 -844 Descending Seattle Center
Thu 06:33:51 PM 47.4039 -122.3178 North 134 154 1,100 -677 Descending Seattle Center
Thu 06:34:48 PM 47.4339 -122.3186 359° North 120 138 500 -407 Descending Seattle Center
Thu 06:35:49 PM 47.4689 -122.3183 360° North 119 137 300 -197 Descending Seattle Center
Thu 06:37:00 PM 47.4499 -122.3118 121° Southeast  Level Estimated

Login

Don't have an account? Register now (free) for customized features, flight alerts, and more!